Terminal Aerodrome Forecast
Issued by NWS

Home | Current Version | Previous Version | Text Only | Print | Product List | Glossary On
Versions: 1 2 3 4 5 6 7 8 9 10 11 12 13 14 15 16 17 18 19 20 21
000
FTUS42 KTBW 232300
TAFLAL
TAF
KLAL 232325Z 2400/2424 27007KT P6SM FEW050
     FM240200 VRB04KT P6SM SKC
     FM240900 VRB02KT 6SM BR SKC
     FM241300 15005KT P6SM SCT035
     FM241800 28009KT P6SM SCT035
      AMD NOT SKED 2403/2412=

USA.gov is the U.S. government's official web portal to all federal, state and local government web resources and services.